Time,TemperatureF,DewpointF,PressureIn,WindDirection,WindDirectionDegrees,WindSpeedMPH,WindSpeedGustMPH,Humidity,HourlyPrecipIn,Conditions,Clouds,dailyrainin,SoftwareType,DateUTC
2013-01-10 07:04:00,51.4,43.7,29.88,East,90,3.5,4.0,75,0.00,,,0.00,,2013-01-10 06:04:00,
2013-01-10 07:09:00,51.6,43.9,29.88,East,90,4.4,4.9,75,0.00,,,0.00,,2013-01-10 06:09:00,
2013-01-10 07:14:00,51.6,43.9,29.88,East,90,3.5,4.9,75,0.00,,,0.00,,2013-01-10 06:14:00,
2013-01-10 07:19:00,51.6,43.9,29.88,East,90,4.4,4.9,75,0.00,,,0.00,,2013-01-10 06:19:00,
2013-01-10 07:24:00,51.6,43.9,29.88,East,90,4.9,4.9,75,0.00,,,0.00,,2013-01-10 06:24:00,
2013-01-10 07:29:00,51.6,43.9,29.88,East,90,4.9,7.6,75,0.00,,,0.00,,2013-01-10 06:29:00,
2013-01-10 07:34:00,51.6,43.9,29.85,East,90,4.9,0.0,75,0.00,,,0.00,,2013-01-10 06:34:00,
2013-01-10 07:39:00,51.8,44.1,29.85,East,90,4.9,0.0,75,0.00,,,0.00,,2013-01-10 06:39:00,
2013-01-10 07:44:00,51.8,44.1,29.85,East,90,4.9,10.7,75,0.00,,,0.00,,2013-01-10 06:44:00,
2013-01-10 07:49:00,51.8,43.7,29.85,East,90,4.9,8.5,74,0.00,,,0.00,,2013-01-10 06:49:00,
2013-01-10 07:54:00,51.8,43.7,29.85,East,90,4.9,8.5,74,0.00,,,0.00,,2013-01-10 06:54:00,
2013-01-10 07:59:00,51.6,43.9,29.85,SE,135,6.2,8.0,75,0.00,,,0.00,,2013-01-10 06:59:00,
2013-01-10 08:04:00,51.6,43.9,29.85,East,90,5.8,6.2,75,0.00,,,0.00,,2013-01-10 07:04:00,
2013-01-10 08:09:00,51.6,43.9,29.85,SE,135,4.9,6.2,75,0.00,,,0.00,,2013-01-10 07:09:00,
2013-01-10 08:14:00,51.6,43.9,29.85,East,90,4.9,8.5,75,0.00,,,0.00,,2013-01-10 07:14:00,
2013-01-10 08:19:00,51.4,44.1,29.85,East,90,5.8,8.9,76,0.00,,,0.00,,2013-01-10 07:19:00,
2013-01-10 08:24:00,51.4,44.1,29.85,ENE,67,8.0,9.3,76,0.00,,,0.00,,2013-01-10 07:24:00,
2013-01-10 08:29:00,51.3,43.9,29.85,East,90,3.5,3.5,76,0.00,,,0.00,,2013-01-10 07:29:00,
2013-01-10 08:34:00,51.3,44.2,29.85,East,90,6.2,6.2,77,0.00,,,0.00,,2013-01-10 07:34:00,
2013-01-10 08:39:00,51.1,44.4,29.85,SE,135,3.5,5.3,78,0.00,,,0.00,,2013-01-10 07:39:00,
2013-01-10 08:44:00,50.9,44.2,29.85,South,180,3.5,3.5,78,0.00,,,0.00,,2013-01-10 07:44:00,
2013-01-10 08:49:00,50.9,44.6,29.85,East,90,3.5,7.6,79,0.00,,,0.00,,2013-01-10 07:49:00,
2013-01-10 08:54:00,50.7,44.4,29.85,East,90,3.5,7.6,79,0.00,,,0.00,,2013-01-10 07:54:00,
2013-01-10 08:59:00,50.7,44.6,29.85,East,90,3.1,4.0,80,0.00,,,0.00,,2013-01-10 07:59:00,
2013-01-10 09:04:00,50.7,44.6,29.85,East,90,4.4,7.6,80,0.00,,,0.00,,2013-01-10 08:04:00,
2013-01-10 09:09:00,50.7,44.6,29.85,East,90,4.4,7.6,80,0.00,,,0.00,,2013-01-10 08:09:00,
2013-01-10 09:14:00,50.5,44.4,29.85,SE,135,3.1,4.4,80,0.00,,,0.00,,2013-01-10 08:14:00,
2013-01-10 09:19:00,50.5,44.8,29.85,East,90,5.8,5.8,81,0.00,,,0.00,,2013-01-10 08:19:00,
2013-01-10 09:24:00,50.5,44.8,29.85,East,90,4.4,0.0,81,0.00,,,0.00,,2013-01-10 08:24:00,
2013-01-10 09:29:00,50.5,44.8,29.85,East,90,4.4,0.0,81,0.00,,,0.00,,2013-01-10 08:29:00,
2013-01-10 09:34:00,50.5,45.1,29.85,East,90,4.0,5.8,82,0.00,,,0.00,,2013-01-10 08:34:00,
2013-01-10 09:39:00,50.5,45.5,29.85,East,90,4.0,7.6,83,0.00,,,0.00,,2013-01-10 08:39:00,
2013-01-10 09:44:00,50.5,45.5,29.85,ESE,112,3.5,8.0,83,0.00,,,0.00,,2013-01-10 08:44:00,
2013-01-10 09:49:00,50.4,45.7,29.85,East,90,5.8,7.6,84,0.00,,,0.00,,2013-01-10 08:49:00,
2013-01-10 09:54:00,50.4,45.9,29.85,East,90,6.2,10.2,85,0.00,,,0.00,,2013-01-10 08:54:00,
2013-01-10 09:59:00,50.5,46.4,29.85,ENE,67,6.2,15.6,86,0.00,,,0.00,,2013-01-10 08:59:00,
2013-01-10 10:04:00,50.7,46.6,29.85,East,90,8.5,11.1,86,0.00,,,0.00,,2013-01-10 09:04:00,
2013-01-10 10:09:00,50.7,46.6,29.82,ENE,67,7.6,12.0,86,0.00,,,0.00,,2013-01-10 09:09:00,
2013-01-10 10:14:00,50.9,46.8,29.82,East,90,7.6,12.0,86,0.00,,,0.00,,2013-01-10 09:14:00,
2013-01-10 10:19:00,51.1,46.9,29.82,East,90,7.6,12.0,86,0.00,,,0.00,,2013-01-10 09:19:00,
2013-01-10 10:24:00,51.1,46.6,29.82,North,0,0.0,0.0,85,0.00,,,0.00,,2013-01-10 09:24:00,
2013-01-10 10:29:00,51.3,46.8,29.82,North,0,0.0,0.0,85,0.00,,,0.00,,2013-01-10 09:29:00,
2013-01-10 10:34:00,51.3,46.8,29.82,North,0,0.0,0.0,85,0.00,,,0.00,,2013-01-10 09:34:00,
2013-01-10 10:39:00,51.3,46.8,29.82,North,0,0.0,0.0,85,0.00,,,0.00,,2013-01-10 09:39:00,
2013-01-10 10:44:00,51.4,46.9,29.82,North,0,0.0,0.0,85,0.00,,,0.00,,2013-01-10 09:44:00,
2013-01-10 10:49:00,51.4,46.9,29.82,East,90,7.6,9.3,85,0.00,,,0.00,,2013-01-10 09:49:00,
2013-01-10 10:54:00,51.4,46.8,29.82,East,90,7.6,9.3,84,0.00,,,0.00,,2013-01-10 09:54:00,
2013-01-10 10:59:00,51.4,46.9,29.82,East,90,7.6,9.3,85,0.00,,,0.00,,2013-01-10 09:59:00,
2013-01-10 11:04:00,51.6,47.1,29.82,North,0,0.0,0.0,85,0.00,,,0.00,,2013-01-10 10:04:00,
2013-01-10 11:09:00,51.6,47.1,29.82,North,0,0.0,0.0,85,0.00,,,0.00,,2013-01-10 10:09:00,
2013-01-10 11:14:00,51.6,47.1,29.82,North,0,0.0,0.0,85,0.00,,,0.00,,2013-01-10 10:14:00,
2013-01-10 11:19:00,51.4,46.9,29.82,North,0,0.0,0.0,85,0.00,,,0.00,,2013-01-10 10:19:00,
2013-01-10 11:24:00,51.6,47.1,29.82,North,0,0.0,0.0,85,0.00,,,0.00,,2013-01-10 10:24:00,
2013-01-10 11:29:00,51.6,47.1,29.79,North,0,0.0,0.0,85,0.00,,,0.00,,2013-01-10 10:29:00,
2013-01-10 11:39:00,51.8,47.3,29.79,East,90,7.1,9.3,85,0.00,,,0.00,,2013-01-10 10:39:00,
2013-01-10 11:49:00,52.0,47.1,29.79,East,90,10.2,10.2,84,0.00,,,0.00,,2013-01-10 10:49:00,
2013-01-10 11:54:00,52.0,47.1,29.79,East,90,7.1,7.1,84,0.00,,,0.00,,2013-01-10 10:54:00,
2013-01-10 11:59:00,52.0,46.9,29.79,East,90,8.0,8.0,83,0.00,,,0.00,,2013-01-10 10:59:00,
2013-01-10 12:10:00,52.0,47.1,29.79,East,90,8.0,8.9,84,0.00,,,0.00,,2013-01-10 11:10:00,
2013-01-10 12:14:00,52.0,47.1,29.79,East,90,7.6,8.9,84,0.00,,,0.00,,2013-01-10 11:14:00,
2013-01-10 12:19:00,51.8,47.3,29.79,East,90,7.1,9.3,85,0.00,,,0.00,,2013-01-10 11:19:00,
2013-01-10 12:25:00,51.8,47.7,29.79,East,90,6.2,8.9,86,0.00,,,0.00,,2013-01-10 11:25:00,
2013-01-10 12:30:00,51.6,47.5,29.79,East,90,7.1,7.1,86,0.00,,,0.00,,2013-01-10 11:30:00,
2013-01-10 12:35:00,51.8,47.7,29.76,East,90,7.6,7.6,86,0.00,,,0.00,,2013-01-10 11:35:00,
2013-01-10 12:40:00,51.8,48.0,29.76,East,90,4.4,4.4,87,0.00,,,0.00,,2013-01-10 11:40:00,
2013-01-10 12:45:00,52.0,48.2,29.76,East,90,6.2,7.6,87,0.00,,,0.00,,2013-01-10 11:45:00,
2013-01-10 12:50:00,52.0,48.2,29.76,East,90,4.4,8.0,87,0.00,,,0.00,,2013-01-10 11:50:00,
2013-01-10 12:55:00,51.8,48.0,29.76,East,90,6.2,10.7,87,0.03,,,0.03,,2013-01-10 11:55:00,
2013-01-10 13:00:00,51.6,48.0,29.76,East,90,4.0,5.8,88,0.00,,,0.03,,2013-01-10 12:00:00,
2013-01-10 13:05:00,51.6,48.0,29.76,East,90,4.4,4.4,88,0.00,,,0.03,,2013-01-10 12:05:00,
2013-01-10 13:10:00,51.3,48.0,29.76,East,90,2.2,2.2,89,0.00,,,0.03,,2013-01-10 12:10:00,
2013-01-10 15:25:00,50.0,49.1,29.73,East,90,3.5,0.0,97,0.00,,,0.44,,2013-01-10 14:25:00,
2013-01-10 15:30:00,50.0,49.3,29.73,East,90,3.5,0.0,98,0.00,,,0.44,,2013-01-10 14:30:00,
2013-01-10 15:35:00,50.0,49.3,29.73,East,90,3.1,4.0,98,0.00,,,0.44,,2013-01-10 14:35:00,
2013-01-10 15:40:00,50.0,49.6,29.73,East,90,5.8,8.5,99,0.02,,,0.46,,2013-01-10 14:40:00,
2013-01-10 15:45:00,50.0,49.6,29.73,East,90,4.0,8.5,99,0.02,,,0.46,,2013-01-10 14:45:00,
2013-01-10 15:50:00,50.0,49.6,29.73,East,90,4.4,6.2,99,0.02,,,0.46,,2013-01-10 14:50:00,
2013-01-10 15:55:00,50.0,49.6,29.73,East,90,5.3,8.0,99,0.02,,,0.46,,2013-01-10 14:55:00,
2013-01-10 16:00:00,49.8,49.5,29.73,East,90,4.0,6.2,99,0.00,,,0.46,,2013-01-10 15:00:00,
2013-01-10 16:05:00,49.8,49.5,29.70,East,90,4.9,5.8,99,0.02,,,0.48,,2013-01-10 15:05:00,
2013-01-10 16:10:00,49.8,49.5,29.70,East,90,1.3,3.5,99,0.02,,,0.48,,2013-01-10 15:10:00,
2013-01-10 16:15:00,49.8,49.5,29.70,South,180,0.0,0.0,99,0.02,,,0.48,,2013-01-10 15:15:00,
2013-01-10 16:20:00,49.6,49.3,29.70,South,180,0.4,0.0,99,0.02,,,0.48,,2013-01-10 15:20:00,
2013-01-10 16:25:00,49.6,49.3,29.70,South,180,0.4,0.0,99,0.02,,,0.48,,2013-01-10 15:25:00,
2013-01-10 16:35:00,49.6,49.3,29.70,SSE,157,0.0,0.0,99,0.02,,,0.48,,2013-01-10 15:35:00,
2013-01-10 16:40:00,49.6,49.3,29.70,South,180,0.0,0.0,99,0.02,,,0.48,,2013-01-10 15:40:00,
2013-01-10 16:45:00,49.6,49.3,29.70,South,180,0.0,0.0,99,0.02,,,0.48,,2013-01-10 15:45:00,
2013-01-10 16:50:00,49.5,49.1,29.70,South,180,0.0,0.0,99,0.02,,,0.48,,2013-01-10 15:50:00,
2013-01-10 16:55:00,49.5,49.1,29.70,East,90,0.0,1.3,99,0.02,,,0.48,,2013-01-10 15:55:00,
2013-01-10 17:00:00,49.5,49.1,29.70,East,90,3.1,4.0,99,0.02,,,0.48,,2013-01-10 16:00:00,
2013-01-10 17:05:00,49.3,48.9,29.70,East,90,2.6,5.3,99,0.00,,,0.48,,2013-01-10 16:05:00,
2013-01-10 17:10:00,49.1,48.7,29.70,East,90,2.6,4.0,99,0.00,,,0.48,,2013-01-10 16:10:00,
2013-01-10 17:15:00,49.1,48.7,29.70,East,90,2.2,4.0,99,0.00,,,0.48,,2013-01-10 16:15:00,
2013-01-10 17:20:00,49.1,48.7,29.70,East,90,2.6,4.0,99,0.00,,,0.48,,2013-01-10 16:20:00,
2013-01-10 17:25:00,49.3,48.9,29.70,East,90,2.6,4.0,99,0.00,,,0.48,,2013-01-10 16:25:00,
2013-01-10 17:30:00,49.3,48.9,29.70,East,90,1.3,1.7,99,0.00,,,0.48,,2013-01-10 16:30:00,
2013-01-10 17:35:00,49.3,48.9,29.70,ENE,67,2.2,2.2,99,0.00,,,0.48,,2013-01-10 16:35:00,
2013-01-10 17:40:00,49.3,48.9,29.70,East,90,1.3,3.5,99,0.00,,,0.48,,2013-01-10 16:40:00,
2013-01-10 17:45:00,49.5,49.1,29.70,East,90,0.4,0.0,99,0.00,,,0.48,,2013-01-10 16:45:00,
2013-01-10 17:50:00,49.5,49.1,29.70,East,90,0.0,0.0,99,0.00,,,0.48,,2013-01-10 16:50:00,
2013-01-10 17:55:00,49.5,49.1,29.70,East,90,0.8,2.2,99,0.00,,,0.48,,2013-01-10 16:55:00,
2013-01-10 18:00:00,49.5,49.1,29.70,East,90,0.8,3.1,99,0.00,,,0.48,,2013-01-10 17:00:00,
2013-01-10 18:05:00,49.5,49.1,29.70,East,90,0.4,0.0,99,0.00,,,0.48,,2013-01-10 17:05:00,
2013-01-10 18:10:00,49.5,49.1,29.70,East,90,0.4,0.0,99,0.00,,,0.48,,2013-01-10 17:10:00,
2013-01-10 18:15:00,49.5,49.1,29.70,East,90,0.0,0.0,99,0.00,,,0.48,,2013-01-10 17:15:00,
2013-01-10 18:20:00,49.5,49.1,29.70,East,90,1.3,1.7,99,0.00,,,0.48,,2013-01-10 17:20:00,
2013-01-10 18:25:00,49.5,49.1,29.70,East,90,0.0,0.0,99,0.00,,,0.48,,2013-01-10 17:25:00,
2013-01-10 18:30:00,49.5,49.1,29.70,East,90,0.4,0.0,99,0.00,,,0.48,,2013-01-10 17:30:00,
2013-01-10 18:35:00,49.5,49.1,29.70,East,90,0.4,1.7,99,0.00,,,0.48,,2013-01-10 17:35:00,
2013-01-10 18:40:00,49.5,49.1,29.70,East,90,0.8,0.0,99,0.00,,,0.48,,2013-01-10 17:40:00,
2013-01-10 18:45:00,49.5,49.1,29.70,East,90,0.0,0.4,99,0.00,,,0.48,,2013-01-10 17:45:00,
2013-01-10 18:50:00,49.5,49.1,29.70,East,90,0.4,2.2,99,0.00,,,0.48,,2013-01-10 17:50:00,
2013-01-10 18:55:00,49.5,49.1,29.70,East,90,0.4,2.2,99,0.00,,,0.48,,2013-01-10 17:55:00,
2013-01-10 19:00:00,49.5,49.1,29.70,East,90,0.0,0.0,99,0.00,,,0.48,,2013-01-10 18:00:00,
2013-01-10 19:05:00,49.5,49.1,29.70,East,90,0.0,0.0,99,0.00,,,0.48,,2013-01-10 18:05:00,
2013-01-10 19:10:00,49.5,49.1,29.70,East,90,0.0,0.0,99,0.00,,,0.48,,2013-01-10 18:10:00,
2013-01-10 19:15:00,49.5,49.1,29.70,East,90,0.0,0.0,99,0.00,,,0.48,,2013-01-10 18:15:00,
2013-01-10 19:20:00,49.5,49.1,29.70,East,90,0.0,0.0,99,0.00,,,0.48,,2013-01-10 18:20:00,
2013-01-10 19:25:00,49.5,49.1,29.70,East,90,0.0,0.0,99,0.00,,,0.48,,2013-01-10 18:25:00,
2013-01-10 19:30:00,49.5,48.7,29.70,East,90,0.0,0.0,98,0.00,,,0.48,,2013-01-10 18:30:00,
2013-01-10 19:35:00,49.3,48.6,29.70,East,90,0.0,0.0,98,0.00,,,0.48,,2013-01-10 18:35:00,
2013-01-10 19:40:00,49.3,48.9,29.70,East,90,0.0,0.0,99,0.00,,,0.48,,2013-01-10 18:40:00,
2013-01-10 19:45:00,49.3,48.9,29.73,East,90,0.0,0.0,99,0.00,,,0.48,,2013-01-10 18:45:00,
2013-01-10 19:50:00,49.3,48.6,29.73,East,90,0.0,0.0,98,0.00,,,0.48,,2013-01-10 18:50:00,
2013-01-10 19:55:00,49.3,48.9,29.70,East,90,0.0,0.0,99,0.00,,,0.48,,2013-01-10 18:55:00,
2013-01-10 20:00:00,49.1,48.4,29.70,East,90,0.0,0.0,98,0.00,,,0.48,,2013-01-10 19:00:00,
2013-01-10 20:05:00,49.1,48.4,29.73,East,90,0.0,0.0,98,0.00,,,0.48,,2013-01-10 19:05:00,
2013-01-10 20:10:00,49.1,48.7,29.73,East,90,0.0,0.0,99,0.00,,,0.48,,2013-01-10 19:10:00,
2013-01-10 20:15:00,49.1,48.7,29.70,East,90,0.0,0.0,99,0.00,,,0.48,,2013-01-10 19:15:00,
2013-01-10 20:20:00,49.1,48.7,29.70,East,90,0.0,0.0,99,0.00,,,0.48,,2013-01-10 19:20:00,
2013-01-10 20:25:00,48.9,48.2,29.70,East,90,0.0,0.0,98,0.00,,,0.48,,2013-01-10 19:25:00,
2013-01-10 20:30:00,48.7,48.4,29.70,East,90,0.0,0.0,99,0.00,,,0.48,,2013-01-10 19:30:00,
2013-01-10 20:35:00,48.6,48.0,29.70,East,90,0.0,0.0,98,0.00,,,0.48,,2013-01-10 19:35:00,
2013-01-10 20:40:00,48.6,48.0,29.70,North,0,0.0,0.0,98,0.00,,,0.48,,2013-01-10 19:40:00,
2013-01-10 20:45:00,48.6,48.2,29.70,North,0,0.0,0.0,99,0.00,,,0.48,,2013-01-10 19:45:00,
2013-01-10 20:50:00,48.6,48.2,29.70,North,0,0.0,0.0,99,0.00,,,0.48,,2013-01-10 19:50:00,
2013-01-10 20:55:00,48.6,48.2,29.73,North,0,0.0,0.0,99,0.00,,,0.48,,2013-01-10 19:55:00,
2013-01-10 21:00:00,48.4,47.8,29.73,North,0,0.0,0.0,98,0.00,,,0.48,,2013-01-10 20:00:00,
2013-01-10 21:05:00,48.6,48.0,29.73,North,0,0.0,0.0,98,0.00,,,0.48,,2013-01-10 20:05:00,
2013-01-10 21:10:00,48.6,48.2,29.73,North,0,0.0,0.0,99,0.00,,,0.48,,2013-01-10 20:10:00,
2013-01-10 21:15:00,48.6,48.2,29.73,North,0,0.0,0.0,99,0.00,,,0.48,,2013-01-10 20:15:00,
2013-01-10 21:20:00,48.7,48.4,29.73,North,0,0.0,0.0,99,0.00,,,0.48,,2013-01-10 20:20:00,
2013-01-10 21:49:00,48.6,48.2,29.73,North,0,0.0,0.0,99,0.00,,,0.48,,2013-01-10 20:49:00,
2013-01-10 21:59:00,48.7,48.4,29.73,North,0,0.0,0.0,99,0.00,,,0.48,,2013-01-10 20:59:00,